createdAt,value
2018-10-11T11:48:20.023Z,804.38
2018-10-11T11:49:19.989Z,708.75
2018-10-11T11:50:19.993Z,697.50
2018-10-11T11:51:19.960Z,703.13
2018-10-11T11:52:19.943Z,731.25
2018-10-11T11:53:19.931Z,725.63
2018-10-11T11:54:19.917Z,708.75
2018-10-11T11:55:19.916Z,635.63
2018-10-11T11:56:19.892Z,675.00
2018-10-11T11:57:19.878Z,798.75
2018-10-11T11:58:19.874Z,793.13
2018-10-11T11:59:19.850Z,742.50
2018-10-11T12:00:19.856Z,675.00
2018-10-11T12:01:19.835Z,691.88
2018-10-11T12:02:19.813Z,742.50
2018-10-11T12:03:19.800Z,714.38
2018-10-11T12:04:19.787Z,776.25
2018-10-11T12:05:19.779Z,753.75
2018-10-11T12:06:19.774Z,849.38
2018-10-11T12:07:19.754Z,1676.25
2018-10-11T12:08:19.735Z,2334.38
2018-10-11T12:09:19.726Z,2446.88
2018-10-11T12:10:19.755Z,2182.50
2018-10-11T12:11:19.722Z,2362.50
2018-10-11T12:12:19.688Z,2441.25
2018-10-11T12:13:19.684Z,2070.00
2018-10-11T12:14:19.676Z,2250.00
2018-10-11T12:15:19.656Z,2401.88
2018-10-11T12:16:19.681Z,2520.00
2018-10-11T12:17:19.631Z,1974.38
2018-10-11T12:18:19.624Z,1338.75
2018-10-11T12:19:19.606Z,1434.38
2018-10-11T12:20:19.598Z,1653.75
2018-10-11T12:21:19.589Z,1805.63
2018-10-11T12:22:19.591Z,1743.75
2018-10-11T12:23:19.561Z,1676.25
2018-10-11T12:24:19.557Z,1462.50
2018-10-11T12:25:19.541Z,1147.50
2018-10-11T12:26:19.538Z,1333.13
2018-10-11T12:27:19.540Z,1715.63
2018-10-11T12:28:19.569Z,1074.38
2018-10-11T12:29:19.496Z,877.50
2018-10-11T12:30:19.488Z,956.25
2018-10-11T12:31:19.476Z,1333.13
2018-10-11T12:32:19.467Z,922.50
2018-10-11T12:33:19.470Z,1445.63
2018-10-11T12:34:19.439Z,1726.88
2018-10-11T12:35:19.512Z,2058.75
2018-10-11T12:36:19.431Z,2075.63
2018-10-11T12:37:19.408Z,2250.00
2018-10-11T12:38:19.418Z,1845.00
2018-10-11T12:39:19.383Z,1839.38
2018-10-11T12:40:19.377Z,2064.38
2018-10-11T12:41:19.363Z,2041.88
2018-10-11T12:42:19.359Z,2030.63
2018-10-11T12:43:19.342Z,1963.13
2018-10-11T12:44:19.370Z,1760.63
2018-10-11T12:45:19.380Z,1783.13
2018-10-11T12:46:19.315Z,2120.63
2018-10-11T12:47:19.298Z,2086.88
2018-10-11T12:48:19.288Z,1721.25
2018-10-11T12:49:19.287Z,1428.75
2018-10-11T12:50:19.289Z,1248.75
2018-10-11T12:51:19.256Z,1276.88
2018-10-11T12:52:19.246Z,1777.50
2018-10-11T12:53:19.235Z,1839.38
2018-10-11T12:54:19.273Z,1282.50
2018-10-11T12:55:19.242Z,978.75
2018-10-11T12:56:19.309Z,1198.13
2018-10-11T12:57:20.844Z,900.00
2018-10-11T12:58:19.191Z,765.00
2018-10-11T12:59:19.174Z,708.75
2018-10-11T13:00:19.167Z,697.50
2018-10-11T13:01:21.128Z,815.63
2018-10-11T13:02:19.155Z,933.75
2018-10-11T13:03:19.186Z,995.63
2018-10-11T13:04:19.127Z,933.75
2018-10-11T13:05:19.112Z,900.00
2018-10-11T13:06:19.104Z,781.88
2018-10-11T13:07:19.115Z,703.13
2018-10-11T13:08:19.080Z,708.75
2018-10-11T13:09:19.144Z,703.13
2018-10-11T13:10:19.057Z,776.25
2018-10-11T13:11:19.046Z,703.13
2018-10-11T13:12:19.038Z,883.13
2018-10-11T13:13:19.037Z,658.13
2018-10-11T13:14:19.014Z,663.75
2018-10-11T13:15:19.008Z,770.63
2018-10-11T13:16:18.996Z,691.88
2018-10-11T13:17:18.984Z,669.38
2018-10-11T13:18:18.989Z,646.88
2018-10-11T13:19:18.960Z,663.75
2018-10-11T13:20:18.947Z,624.38
2018-10-11T13:21:18.935Z,590.63
2018-10-11T13:22:18.927Z,579.38
2018-10-11T13:23:18.928Z,568.13
2018-10-11T13:24:18.904Z,562.50
2018-10-11T13:25:18.893Z,556.88
2018-10-11T13:26:18.884Z,556.88
2018-10-11T13:27:18.871Z,556.88
2018-10-11T13:28:18.882Z,556.88
2018-10-11T13:29:18.852Z,556.88
2018-10-11T13:30:18.839Z,551.25
2018-10-11T13:31:18.825Z,545.63
2018-10-11T13:32:18.816Z,523.13
2018-10-11T13:33:18.801Z,511.88
2018-10-11T13:34:18.820Z,506.25
2018-10-11T13:35:18.840Z,511.88
2018-10-11T13:36:18.776Z,517.50
2018-10-11T13:37:18.760Z,551.25
2018-10-11T13:38:18.750Z,618.75
2018-10-11T13:39:18.738Z,601.88
2018-10-11T13:40:18.748Z,601.88
2018-10-11T13:41:18.803Z,534.38
2018-10-11T13:42:18.705Z,506.25
2018-10-11T13:43:18.691Z,483.75
2018-10-11T13:44:18.720Z,483.75
2018-10-11T13:45:18.669Z,478.13
2018-10-11T13:46:18.658Z,466.88
2018-10-11T13:47:18.657Z,466.88
2018-10-11T13:48:18.637Z,466.88
2018-10-11T13:49:18.625Z,455.63
2018-10-11T13:50:18.626Z,450.00
2018-10-11T13:51:18.600Z,444.38
2018-10-11T13:52:21.684Z,438.75
2018-10-11T13:53:21.324Z,444.38
2018-10-11T13:54:18.602Z,427.50
2018-10-11T13:55:18.553Z,427.50
2018-10-11T13:56:18.542Z,410.63
2018-10-11T13:57:20.895Z,399.38
2018-10-11T13:58:18.519Z,393.75
2018-10-11T13:59:18.506Z,382.50
2018-10-11T14:00:18.513Z,382.50
2018-10-11T14:01:18.486Z,376.88
2018-10-11T14:02:18.473Z,371.25
2018-10-11T14:03:18.461Z,365.63
2018-10-11T14:04:18.452Z,360.00
2018-10-11T14:05:18.452Z,354.38
2018-10-11T14:06:18.427Z,354.38
2018-10-11T14:07:18.415Z,348.75
2018-10-11T14:08:18.408Z,354.38
2018-10-11T14:09:18.395Z,376.88
2018-10-11T14:10:18.402Z,399.38
2018-10-11T14:11:18.371Z,433.13
2018-10-11T14:12:18.359Z,500.63
2018-10-11T14:13:20.485Z,540.00
2018-10-11T14:14:18.332Z,568.13
2018-10-11T14:15:18.333Z,579.38
2018-10-11T14:16:18.307Z,579.38
2018-10-11T14:17:18.304Z,590.63
2018-10-11T14:18:18.284Z,618.75
2018-10-11T14:19:18.270Z,646.88
2018-10-11T14:20:18.277Z,675.00
2018-10-11T14:21:18.247Z,697.50
2018-10-11T14:22:18.238Z,714.38
2018-10-11T14:23:18.232Z,725.63
2018-10-11T14:24:18.236Z,731.25
2018-10-11T14:25:18.223Z,736.88
2018-10-11T14:26:18.195Z,748.13
2018-10-11T14:27:18.176Z,731.25
2018-10-11T14:28:18.163Z,720.00
2018-10-11T14:29:18.157Z,703.13
2018-10-11T14:30:18.142Z,680.63
2018-10-11T14:31:18.150Z,646.88
2018-10-11T14:32:18.117Z,624.38
2018-10-11T14:33:18.110Z,601.88
2018-10-11T14:34:18.096Z,585.00
2018-10-11T14:35:18.086Z,573.75
2018-10-11T14:36:18.124Z,568.13
2018-10-11T14:37:18.140Z,568.13
2018-10-11T14:38:18.053Z,562.50
2018-10-11T14:39:18.042Z,556.88
2018-10-11T14:40:18.026Z,551.25
2018-10-11T14:41:18.016Z,528.75
2018-10-11T14:42:18.026Z,506.25
2018-10-11T14:43:18.023Z,478.13
2018-10-11T14:44:17.979Z,455.63
2018-10-11T14:45:17.968Z,427.50
2018-10-11T14:46:17.959Z,410.63
2018-10-11T14:47:17.959Z,410.63
2018-10-11T14:48:17.938Z,410.63
2018-10-11T14:49:17.925Z,410.63
2018-10-11T14:50:17.912Z,427.50
2018-10-11T14:51:17.925Z,433.13
2018-10-11T14:52:17.910Z,433.13
2018-10-11T14:53:17.878Z,427.50
2018-10-11T14:54:17.872Z,421.88
2018-10-11T14:55:17.850Z,410.63
2018-10-11T14:56:17.846Z,393.75
2018-10-11T14:57:17.897Z,388.13
2018-10-11T14:58:17.818Z,388.13
2018-10-11T14:59:17.804Z,388.13
2018-10-11T15:00:17.807Z,388.13
2018-10-11T15:01:17.783Z,388.13
2018-10-11T15:02:17.769Z,388.13
2018-10-11T15:03:17.870Z,371.25
2018-10-11T15:04:17.751Z,348.75
2018-10-11T15:05:17.800Z,326.25
2018-10-11T15:06:17.722Z,303.75
2018-10-11T15:07:17.713Z,292.50
2018-10-11T15:08:17.716Z,264.38
2018-10-11T15:09:17.696Z,247.50
2018-10-11T15:10:17.681Z,230.63
2018-10-11T15:11:17.719Z,213.75
2018-10-11T15:12:17.667Z,202.50
2018-10-11T15:13:17.644Z,196.88
2018-10-11T15:14:17.628Z,196.88
2018-10-11T15:15:17.616Z,196.88
2018-10-11T15:16:17.603Z,191.25
2018-10-11T15:17:17.608Z,191.25
2018-10-11T15:18:17.579Z,196.88
2018-10-11T15:19:17.565Z,196.88
2018-10-11T15:20:17.554Z,208.13
2018-10-11T15:21:17.543Z,213.75
2018-10-11T15:22:17.544Z,219.38
2018-10-11T15:23:17.517Z,225.00
2018-10-11T15:24:17.505Z,236.25
2018-10-11T15:25:17.497Z,247.50
2018-10-11T15:26:17.481Z,247.50
2018-10-11T15:27:17.513Z,253.13
2018-10-11T15:28:17.455Z,253.13
2018-10-11T15:29:17.466Z,253.13
2018-10-11T15:30:17.432Z,253.13
2018-10-11T15:31:17.418Z,253.13
2018-10-11T15:32:17.413Z,253.13
2018-10-11T15:33:17.406Z,253.13
2018-10-11T15:34:17.382Z,247.50
2018-10-11T15:35:17.374Z,241.88
2018-10-11T15:36:17.358Z,236.25
2018-10-11T15:37:17.367Z,230.63
2018-10-11T15:38:17.332Z,230.63
2018-10-11T15:39:17.321Z,225.00
2018-10-11T15:40:17.308Z,219.38
2018-10-11T15:41:17.295Z,213.75
2018-10-11T15:42:17.282Z,213.75
2018-10-11T15:43:17.282Z,208.13
2018-10-11T15:44:17.262Z,196.88
2018-10-11T15:45:17.248Z,191.25
2018-10-11T15:46:17.232Z,180.00
2018-10-11T15:47:17.218Z,174.38
2018-10-11T15:48:17.217Z,174.38
2018-10-11T15:49:17.192Z,185.63
2018-10-11T15:50:17.177Z,191.25
2018-10-11T15:51:17.167Z,196.88
2018-10-11T15:52:17.186Z,202.50
2018-10-11T15:53:17.155Z,202.50
2018-10-11T15:54:17.129Z,191.25
2018-10-11T15:55:17.114Z,180.00
2018-10-11T15:56:17.105Z,174.38
2018-10-11T15:57:17.090Z,174.38
2018-10-11T15:58:17.095Z,168.75
2018-10-11T15:59:17.067Z,168.75
2018-10-11T16:00:17.062Z,163.13
2018-10-11T16:01:17.039Z,163.13
2018-10-11T16:02:17.028Z,157.50
2018-10-11T16:03:17.051Z,151.88
2018-10-11T16:04:16.997Z,146.25
2018-10-11T16:05:16.990Z,140.63
2018-10-11T16:06:16.978Z,135.00
2018-10-11T16:07:16.964Z,135.00
2018-10-11T16:08:16.951Z,135.00
2018-10-11T16:09:17.088Z,140.63
2018-10-11T16:10:16.924Z,140.63
2018-10-11T16:11:16.910Z,140.63
2018-10-11T16:12:16.895Z,140.63
2018-10-11T16:13:16.884Z,140.63
2018-10-11T16:14:16.883Z,140.63
2018-10-11T16:15:16.857Z,140.63
2018-10-11T16:16:16.848Z,135.00
2018-10-11T16:17:16.835Z,135.00
2018-10-11T16:18:16.821Z,129.38
2018-10-11T16:19:16.822Z,123.75
2018-10-11T16:20:16.791Z,118.13
2018-10-11T16:21:16.786Z,112.50
2018-10-11T16:22:16.769Z,106.88
2018-10-11T16:23:16.755Z,101.25
2018-10-11T16:24:16.759Z,95.63
2018-10-11T16:25:16.732Z,90.00
2018-10-11T16:26:16.715Z,84.38
2018-10-11T16:27:16.698Z,78.75
2018-10-11T16:28:16.688Z,78.75
2018-10-11T16:29:16.676Z,73.13
2018-10-11T16:30:16.677Z,73.13
2018-10-11T16:31:16.650Z,67.50
2018-10-11T16:32:16.676Z,67.50
2018-10-11T16:33:16.621Z,67.50
2018-10-11T16:34:16.607Z,67.50
2018-10-11T16:35:16.609Z,61.88
2018-10-11T16:36:16.583Z,56.25
2018-10-11T16:37:16.567Z,50.63
2018-10-11T16:38:16.555Z,45.00
2018-10-11T16:39:16.585Z,45.00
2018-10-11T16:40:16.543Z,39.38
2018-10-11T16:41:16.513Z,33.75
2018-10-11T16:42:16.499Z,28.13
2018-10-11T16:43:16.485Z,22.50
2018-10-11T16:44:16.470Z,22.50
2018-10-11T16:45:16.478Z,16.88
2018-10-11T16:46:16.445Z,16.88
2018-10-11T16:47:16.433Z,16.88
2018-10-11T16:48:16.420Z,11.25
2018-10-11T16:49:16.412Z,11.25
2018-10-11T16:50:16.425Z,11.25
2018-10-11T16:51:16.376Z,11.25
2018-10-11T16:52:16.369Z,5.63
2018-10-11T16:53:16.356Z,5.63
2018-10-11T16:54:16.338Z,5.63
2018-10-11T16:55:16.341Z,5.63
2018-10-11T16:56:16.308Z,5.63
2018-10-11T16:57:16.297Z,5.63
2018-10-11T16:58:16.280Z,0.00
2018-10-11T16:59:16.279Z,0.00
2018-10-11T17:00:16.280Z,0.00
2018-10-11T17:01:16.240Z,0.00
2018-10-11T17:02:16.223Z,0.00
2018-10-11T17:03:16.207Z,0.00
2018-10-11T17:04:16.339Z,0.00
2018-10-11T17:05:16.199Z,0.00
2018-10-11T17:06:16.172Z,0.00
2018-10-11T17:07:16.153Z,0.00
2018-10-11T17:08:16.139Z,0.00
2018-10-11T17:09:16.126Z,0.00
2018-10-11T17:10:16.131Z,0.00
2018-10-11T17:11:16.094Z,0.00
2018-10-11T17:12:16.091Z,0.00
2018-10-11T17:13:16.070Z,0.00
2018-10-11T17:14:16.054Z,0.00
2018-10-11T17:15:16.053Z,0.00
2018-10-11T17:16:16.022Z,0.00
2018-10-11T17:17:16.022Z,0.00
2018-10-11T17:18:16.007Z,0.00
2018-10-11T17:19:15.979Z,0.00
2018-10-11T17:20:15.983Z,0.00
2018-10-11T17:21:15.954Z,0.00
2018-10-11T17:22:15.947Z,0.00
2018-10-11T17:23:15.933Z,0.00
2018-10-11T17:24:15.908Z,0.00
2018-10-11T17:25:15.910Z,0.00
2018-10-11T17:26:15.880Z,0.00
2018-10-11T17:27:15.865Z,0.00
2018-10-11T17:28:15.860Z,0.00
2018-10-11T17:29:15.838Z,0.00
2018-10-11T17:30:15.840Z,0.00
2018-10-11T17:31:15.812Z,0.00
2018-10-11T17:32:15.793Z,0.00
2018-10-11T17:33:15.783Z,0.00
2018-10-11T17:34:15.764Z,0.00
2018-10-11T17:35:15.785Z,0.00
2018-10-11T17:36:15.742Z,0.00
2018-10-11T17:37:15.729Z,0.00
2018-10-11T17:38:15.713Z,0.00
2018-10-11T17:39:15.693Z,0.00
2018-10-11T17:40:15.700Z,0.00
2018-10-11T17:41:15.664Z,0.00
2018-10-11T17:42:15.697Z,0.00
2018-10-11T17:43:15.631Z,0.00
2018-10-11T17:44:15.621Z,0.00
2018-10-11T17:45:15.605Z,0.00
2018-10-11T17:46:15.608Z,0.00
2018-10-11T17:47:15.576Z,0.00
2018-10-11T17:48:15.560Z,0.00
2018-10-11T17:49:15.545Z,0.00
2018-10-11T17:50:15.585Z,0.00
2018-10-11T17:51:15.552Z,0.00
2018-10-11T17:52:15.501Z,0.00
2018-10-11T17:53:15.485Z,0.00
2018-10-11T17:54:15.471Z,0.00
2018-10-11T17:55:15.456Z,0.00
2018-10-11T17:56:24.357Z,0.00
2018-10-11T17:57:15.428Z,0.00
2018-10-11T17:58:15.412Z,0.00
2018-10-11T17:59:15.400Z,0.00
2018-10-11T18:00:15.384Z,0.00
2018-10-11T18:01:15.367Z,0.00
2018-10-11T18:02:15.369Z,0.00
2018-10-11T18:03:15.364Z,0.00
2018-10-11T18:04:15.320Z,0.00
2018-10-11T18:05:15.308Z,0.00
2018-10-11T18:06:15.292Z,0.00
2018-10-11T18:07:15.296Z,0.00
2018-10-11T18:08:15.261Z,0.00
2018-10-11T18:09:15.257Z,0.00
2018-10-11T18:10:15.229Z,0.00
2018-10-11T18:11:15.220Z,0.00
2018-10-11T18:12:15.204Z,0.00
2018-10-11T18:13:15.203Z,0.00
2018-10-11T18:14:15.173Z,0.00
2018-10-11T18:15:15.157Z,0.00
2018-10-11T18:16:15.188Z,0.00
2018-10-11T18:17:15.131Z,0.00
2018-10-11T18:18:15.126Z,0.00
2018-10-11T18:19:15.095Z,0.00
2018-10-11T18:20:15.080Z,0.00
2018-10-11T18:21:15.081Z,0.00
2018-10-11T18:22:15.052Z,0.00
2018-10-11T18:23:15.075Z,0.00
2018-10-11T18:24:15.022Z,0.00
2018-10-11T18:25:15.007Z,0.00
2018-10-11T18:26:14.988Z,0.00
2018-10-11T18:27:14.983Z,0.00
2018-10-11T18:28:14.976Z,0.00
2018-10-11T18:29:14.964Z,0.00
2018-10-11T18:30:14.927Z,0.00
2018-10-11T18:31:14.919Z,0.00
2018-10-11T18:32:14.902Z,0.00
2018-10-11T18:33:14.900Z,0.00
2018-10-11T18:34:14.869Z,0.00
2018-10-11T18:35:14.854Z,0.00
